Time;durP1;ratioP1;P1;durP2;ratioP2;P2;SDS_P1;SDS_P2;PMS_P1;PMS_P2;Temp;Humidity;BMP_temperature;BMP_pressure;BME280_temperature;BME280_humidity;BME280_pressure;Samples;Min_cycle;Max_cycle;Signal;HPM_P1;HPM_P2
2022/09/07 00:02:52;;;;;;;6.03;2.28;;;22.00;99.90;;;;;;5010641;28;20044;-68
2022/09/07 00:06:15;;;;;;;8.00;2.35;;;22.00;99.90;;;;;;5009689;28;20052;-68
2022/09/07 00:09:19;;;;;;;4.57;1.90;;;22.00;99.90;;;;;;5011051;28;20064;-69
2022/09/07 00:12:23;;;;;;;4.70;2.45;;;22.00;99.90;;;;;;5010843;28;20215;-68
2022/09/07 00:15:27;;;;;;;3.75;2.20;;;22.00;99.90;;;;;;5010172;28;20052;-68
2022/09/07 00:18:32;;;;;;;5.78;2.03;;;22.00;99.90;;;;;;5010276;28;20397;-68
2022/09/07 00:21:36;;;;;;;3.30;1.95;;;22.00;99.90;;;;;;5009626;28;20381;-68
2022/09/07 00:24:40;;;;;;;6.97;2.10;;;21.90;99.90;;;;;;5010256;28;20389;-68
2022/09/07 00:27:44;;;;;;;7.72;2.25;;;21.80;99.90;;;;;;5010186;28;20408;-68
2022/09/07 00:31:07;;;;;;;9.27;2.83;;;21.80;99.90;;;;;;5010427;28;20045;-69
2022/09/07 00:34:11;;;;;;;3.08;1.95;;;21.70;99.90;;;;;;5009914;28;20045;-68
2022/09/07 00:37:15;;;;;;;9.13;2.50;;;21.60;99.90;;;;;;5009860;28;20041;-68
2022/09/07 00:40:19;;;;;;;14.63;2.92;;;21.60;99.90;;;;;;5010595;28;20047;-69
2022/09/07 00:43:43;;;;;;;7.55;2.63;;;21.50;99.90;;;;;;5009811;28;20052;-69
2022/09/07 00:46:48;;;;;;;6.28;2.45;;;21.40;99.90;;;;;;5010252;28;20049;-68
2022/09/07 00:49:59;;;;;;;5.30;2.05;;;21.20;99.90;;;;;;5009958;28;20052;-69
2022/09/07 00:53:22;;;;;;;7.07;2.45;;;21.20;99.90;;;;;;5010248;28;20392;-68
2022/09/07 00:56:47;;;;;;;7.85;2.67;;;21.20;99.90;;;;;;5010331;28;20056;-68
2022/09/07 00:59:52;;;;;;;7.88;2.80;;;21.10;99.90;;;;;;5010276;28;20076;-69
2022/09/07 01:03:17;;;;;;;11.90;3.00;;;21.10;99.90;;;;;;5010258;28;20045;-68
2022/09/07 01:06:26;;;;;;;7.35;3.03;;;21.00;99.90;;;;;;5010327;28;20052;-68
2022/09/07 01:09:31;;;;;;;3.70;2.40;;;21.00;99.90;;;;;;5010219;28;20122;-68
2022/09/07 01:12:35;;;;;;;5.85;2.92;;;20.90;99.90;;;;;;5009213;28;20053;-69
2022/09/07 01:15:57;;;;;;;7.60;3.00;;;20.90;99.90;;;;;;5009534;28;20048;-68
2022/09/07 01:19:36;;;;;;;6.47;2.40;;;20.80;99.90;;;;;;5009927;28;20041;-69
2022/09/07 01:22:55;;;;;;;7.80;2.50;;;20.50;99.90;;;;;;5009630;28;20543;-68
2022/09/07 01:26:17;;;;;;;5.63;2.53;;;20.40;99.90;;;;;;5009748;28;20041;-68
2022/09/07 01:29:24;;;;;;;8.35;2.60;;;20.40;99.90;;;;;;5009678;28;20052;-68
2022/09/07 01:33:09;;;;;;;3.88;2.28;;;20.40;99.90;;;;;;5010001;28;20053;-68
2022/09/07 01:36:19;;;;;;;5.55;2.83;;;20.40;99.90;;;;;;5013243;28;20052;-68
2022/09/07 01:43:41;;;;;;;6.72;2.83;;;20.40;99.90;;;;;;5013230;28;20052;-68
2022/09/07 01:47:07;;;;;;;8.02;2.63;;;20.40;99.90;;;;;;5013062;28;20058;-68
2022/09/07 01:50:36;;;;;;;5.65;2.38;;;20.30;99.90;;;;;;5012780;28;20033;-68
2022/09/07 01:53:56;;;;;;;10.20;2.58;;;20.30;99.90;;;;;;5013049;28;20284;-68
2022/09/07 01:57:22;;;;;;;6.20;2.15;;;20.30;99.90;;;;;;5012719;28;20049;-69
2022/09/07 02:00:26;;;;;;;4.43;2.17;;;20.30;99.90;;;;;;5012715;28;20504;-68
2022/09/07 02:03:36;;;;;;;6.72;2.70;;;20.40;99.90;;;;;;5012728;28;20053;-68
2022/09/07 02:07:21;;;;;;;7.00;1.98;;;20.40;99.90;;;;;;5012831;28;20049;-68
2022/09/07 02:10:35;;;;;;;7.88;1.92;;;20.50;99.90;;;;;;5013281;28;20070;-68
2022/09/07 02:13:43;;;;;;;6.03;2.58;;;20.50;99.90;;;;;;5012573;28;20117;-68
2022/09/07 02:17:19;;;;;;;3.80;1.80;;;20.50;99.90;;;;;;5012819;28;20048;-68
2022/09/07 02:20:30;;;;;;;4.18;2.38;;;20.50;99.90;;;;;;5012089;28;20052;-69
2022/09/07 02:23:43;;;;;;;3.45;2.08;;;20.40;99.90;;;;;;5012073;28;20572;-69
2022/09/07 02:26:48;;;;;;;3.83;2.00;;;20.40;99.90;;;;;;5012477;28;20421;-69
2022/09/07 02:30:12;;;;;;;5.70;2.33;;;20.30;99.90;;;;;;5012934;28;20372;-68
2022/09/07 02:33:16;;;;;;;6.32;1.98;;;20.30;99.90;;;;;;5011660;28;20400;-68
2022/09/07 02:36:43;;;;;;;7.97;2.45;;;20.40;99.90;;;;;;5012262;28;20044;-68
2022/09/07 02:43:10;;;;;;;6.10;2.33;;;20.30;99.90;;;;;;5011035;28;20524;-68
2022/09/07 02:46:44;;;;;;;10.05;3.08;;;20.30;99.90;;;;;;5011667;28;20045;-68
2022/09/07 02:50:33;;;;;;;7.00;2.10;;;20.30;99.90;;;;;;5012747;28;20401;-69
2022/09/07 02:54:14;;;;;;;6.03;2.33;;;20.30;99.90;;;;;;5011003;28;20528;-68
2022/09/07 02:57:36;;;;;;;6.25;2.38;;;20.30;99.90;;;;;;5011803;28;20049;-68
2022/09/07 03:01:08;;;;;;;4.50;2.22;;;20.20;99.90;;;;;;5012127;28;20049;-68
2022/09/07 03:04:36;;;;;;;6.72;3.00;;;20.20;99.90;;;;;;5010935;28;20389;-69
2022/09/07 03:08:21;;;;;;;5.95;2.40;;;19.80;99.90;;;;;;5010903;28;20068;-68
2022/09/07 03:11:43;;;;;;;3.95;2.40;;;19.80;99.90;;;;;;5011682;28;20045;-68
2022/09/07 03:15:09;;;;;;;3.47;2.53;;;19.90;99.90;;;;;;5010759;28;20052;-69
2022/09/07 03:18:13;;;;;;;7.50;2.30;;;19.90;99.90;;;;;;5010964;28;20272;-68
2022/09/07 03:21:17;;;;;;;5.25;2.58;;;20.00;99.90;;;;;;5011471;28;20504;-68
2022/09/07 03:24:21;;;;;;;6.78;3.15;;;20.10;99.90;;;;;;5010490;28;20377;-68
2022/09/07 03:27:26;;;;;;;6.65;3.03;;;20.20;99.90;;;;;;5011449;28;20053;-69
2022/09/07 03:30:30;;;;;;;7.88;2.97;;;20.30;99.90;;;;;;5011439;28;20440;-68
2022/09/07 03:34:12;;;;;;;5.65;2.67;;;20.10;99.90;;;;;;5010383;28;20496;-68
2022/09/07 03:37:35;;;;;;;5.60;2.80;;;19.90;99.90;;;;;;5011423;28;20049;-69
2022/09/07 03:40:39;;;;;;;7.72;2.88;;;19.90;99.90;;;;;;5011203;28;20048;-69
2022/09/07 03:43:43;;;;;;;6.95;2.90;;;19.80;99.90;;;;;;5010556;28;20053;-68
2022/09/07 03:46:47;;;;;;;7.10;2.80;;;19.90;99.90;;;;;;5009992;28;20314;-68
2022/09/07 03:50:10;;;;;;;7.18;3.05;;;20.00;99.90;;;;;;5010502;28;20045;-69
2022/09/07 03:53:14;;;;;;;6.18;3.10;;;20.10;99.90;;;;;;5010427;28;20515;-68
2022/09/07 03:56:38;;;;;;;11.93;2.92;;;20.10;99.90;;;;;;5010654;28;20400;-68
2022/09/07 04:00:00;;;;;;;8.77;3.42;;;20.10;99.90;;;;;;5010705;28;20065;-68
2022/09/07 04:03:23;;;;;;;13.35;3.25;;;20.00;99.90;;;;;;5010731;28;20408;-69
2022/09/07 04:06:28;;;;;;;11.32;3.35;;;20.00;99.90;;;;;;5010747;28;20045;-68
2022/09/07 04:09:32;;;;;;;8.88;3.33;;;20.00;99.90;;;;;;5010479;28;20504;-68
2022/09/07 04:12:35;;;;;;;10.43;3.28;;;20.10;99.90;;;;;;5010682;28;20053;-68
2022/09/07 04:15:39;;;;;;;8.40;2.85;;;20.00;99.90;;;;;;5010145;28;20048;-69
2022/09/07 04:18:44;;;;;;;7.35;3.95;;;20.00;99.90;;;;;;5010699;28;20380;-68
2022/09/07 04:22:08;;;;;;;8.60;3.25;;;19.80;99.90;;;;;;5009566;28;20044;-68
2022/09/07 04:25:11;;;;;;;6.07;2.75;;;19.90;99.90;;;;;;5010068;28;20045;-69
2022/09/07 04:28:34;;;;;;;6.22;3.50;;;20.00;99.90;;;;;;5010567;28;20045;-69
2022/09/07 04:31:57;;;;;;;10.32;3.17;;;20.10;99.90;;;;;;5009979;28;20049;-69
2022/09/07 04:35:01;;;;;;;9.38;3.67;;;20.30;99.90;;;;;;5011032;28;20041;-69
2022/09/07 04:38:23;;;;;;;6.75;3.30;;;20.20;99.90;;;;;;5010925;28;20057;-68
2022/09/07 04:41:46;;;;;;;5.28;2.50;;;20.30;99.90;;;;;;5010415;28;20049;-68
2022/09/07 04:44:50;;;;;;;7.18;3.17;;;20.30;99.90;;;;;;5010788;28;20049;-69
2022/09/07 04:47:54;;;;;;;7.05;3.03;;;20.30;99.90;;;;;;5011181;28;20053;-69
2022/09/07 04:51:06;;;;;;;10.65;3.40;;;20.30;99.90;;;;;;5010855;28;20044;-68
2022/09/07 04:54:10;;;;;;;4.78;2.92;;;20.40;99.90;;;;;;5010534;28;20061;-69
2022/09/07 04:57:33;;;;;;;8.70;3.13;;;20.30;99.90;;;;;;5010371;28;20053;-68
2022/09/07 05:00:40;;;;;;;4.90;3.13;;;20.40;99.90;;;;;;5011235;28;20084;-68
2022/09/07 05:03:44;;;;;;;6.95;2.88;;;20.40;99.90;;;;;;5009581;28;20068;-69
2022/09/07 05:06:48;;;;;;;7.97;3.20;;;20.40;99.90;;;;;;5011335;28;20393;-69
2022/09/07 05:10:11;;;;;;;7.38;3.30;;;20.30;99.90;;;;;;5013928;28;20057;-69
2022/09/07 05:13:15;;;;;;;4.80;3.50;;;20.30;99.90;;;;;;5014292;28;20053;-68
2022/09/07 05:16:22;;;;;;;10.55;3.58;;;20.30;99.90;;;;;;5014338;28;20044;-69
2022/09/07 05:19:26;;;;;;;6.20;3.28;;;20.20;99.90;;;;;;5014325;28;20041;-68
2022/09/07 05:22:31;;;;;;;5.60;3.28;;;20.30;99.90;;;;;;5014761;28;20045;-68
2022/09/07 05:25:45;;;;;;;6.95;3.38;;;20.50;99.90;;;;;;5013979;28;20057;-68
2022/09/07 05:28:49;;;;;;;9.25;3.60;;;20.60;99.90;;;;;;5014069;28;20041;-68
2022/09/07 05:32:13;;;;;;;8.60;3.65;;;20.70;99.90;;;;;;5002177;28;20476;-69
2022/09/07 05:35:18;;;;;;;9.48;3.50;;;20.80;99.90;;;;;;5001141;28;20591;-69
2022/09/07 05:38:22;;;;;;;9.55;3.53;;;20.90;99.90;;;;;;5013848;28;20126;-69
2022/09/07 05:41:26;;;;;;;5.85;3.85;;;20.90;99.90;;;;;;5013533;28;20037;-69
2022/09/07 05:44:30;;;;;;;7.50;3.10;;;21.20;99.90;;;;;;5012888;28;20275;-69
2022/09/07 05:47:36;;;;;;;6.53;2.78;;;21.50;99.90;;;;;;5013634;28;20511;-69
2022/09/07 05:50:50;;;;;;;4.85;2.90;;;22.00;99.90;;;;;;5013471;28;20489;-69
2022/09/07 05:53:55;;;;;;;7.47;2.92;;;22.30;99.90;;;;;;5012554;28;20045;-69
2022/09/07 05:57:18;;;;;;;10.40;2.50;;;22.40;99.90;;;;;;5013359;28;20048;-69
2022/09/07 06:00:23;;;;;;;8.57;2.80;;;22.60;99.90;;;;;;5013777;28;20045;-69
2022/09/07 06:03:27;;;;;;;5.53;2.58;;;22.80;99.90;;;;;;5018506;28;20040;-69
2022/09/07 06:06:50;;;;;;;7.18;2.65;;;23.00;99.90;;;;;;5027263;28;20491;-68
2022/09/07 06:10:13;;;;;;;7.15;2.50;;;23.10;99.90;;;;;;5013812;28;20057;-69
2022/09/07 06:13:55;;;;;;;11.68;2.97;;;23.10;99.90;;;;;;5020129;28;20053;-70
2022/09/07 06:16:59;;;;;;;5.20;2.60;;;23.20;99.90;;;;;;5023617;28;20060;-68
2022/09/07 06:23:32;;;;;;;8.10;2.60;;;23.40;99.90;;;;;;5020413;28;20045;-69
2022/09/07 06:33:21;;;;;;;7.43;2.80;;;23.60;99.90;;;;;;5024047;28;20152;-68
2022/09/07 06:36:26;;;;;;;4.18;2.45;;;23.70;99.90;;;;;;5024706;28;20048;-68
2022/09/07 06:39:30;;;;;;;7.65;2.72;;;24.00;99.90;;;;;;5030163;28;20040;-68
2022/09/07 06:42:34;;;;;;;4.88;2.58;;;24.10;99.90;;;;;;5017386;28;20064;-68
2022/09/07 06:45:39;;;;;;;4.35;2.13;;;24.30;99.90;;;;;;5016133;28;20045;-69
2022/09/07 06:49:02;;;;;;;4.28;2.10;;;24.70;99.90;;;;;;5021776;28;20049;-68
2022/09/07 06:52:06;;;;;;;5.30;2.42;;;25.40;99.90;;;;;;5020076;28;20045;-68
2022/09/07 06:55:10;;;;;;;9.02;2.38;;;25.60;99.90;;;;;;5022715;28;20500;-69
2022/09/07 06:58:14;;;;;;;9.15;2.60;;;25.90;99.90;;;;;;5015849;28;20045;-68
2022/09/07 07:01:19;;;;;;;5.47;2.55;;;25.60;99.90;;;;;;5026056;28;20048;-69
2022/09/07 07:04:24;;;;;;;8.68;2.53;;;25.20;99.90;;;;;;5022732;28;20596;-68
2022/09/07 07:07:28;;;;;;;6.18;2.47;;;25.10;99.90;;;;;;5019227;28;20060;-68
2022/09/07 07:10:36;;;;;;;8.52;2.85;;;25.10;99.90;;;;;;5020050;28;20052;-68
2022/09/07 07:13:42;;;;;;;8.02;2.25;;;25.40;99.90;;;;;;5020253;28;20049;-68
2022/09/07 07:16:46;;;;;;;8.75;2.30;;;26.80;99.90;;;;;;5017910;28;20315;-68
2022/09/07 07:19:50;;;;;;;5.15;1.73;;;29.20;99.90;;;;;;5022747;28;20044;-68
2022/09/07 07:22:54;;;;;;;6.03;1.90;;;29.70;99.90;;;;;;5015361;28;20099;-68
2022/09/07 07:26:15;;;;;;;8.00;1.67;;;31.30;99.90;;;;;;5016213;28;20049;-68
2022/09/07 07:29:20;;;;;;;;;;;32.20;99.90;;;;;;5020451;28;20188;-69
2022/09/07 07:32:24;;;;;;;5.10;1.95;;;32.40;99.00;;;;;;5018971;28;20280;-68
2022/09/07 07:35:47;;;;;;;8.55;2.08;;;32.60;98.50;;;;;;5020441;28;20041;-69
2022/09/07 07:38:54;;;;;;;5.65;1.80;;;33.30;97.60;;;;;;5019144;28;20044;-70
2022/09/07 07:41:57;;;;;;;7.38;1.80;;;33.80;97.10;;;;;;5016442;28;20049;-69
2022/09/07 07:45:21;;;;;;;11.52;2.60;;;33.50;96.40;;;;;;5021641;28;20041;-69
2022/09/07 07:48:28;;;;;;;6.18;2.30;;;32.60;97.40;;;;;;5027774;28;20052;-69
2022/09/07 07:51:32;;;;;;;9.65;2.10;;;32.60;97.70;;;;;;5018413;28;20048;-69
2022/09/07 07:54:37;;;;;;;7.55;2.90;;;32.40;97.10;;;;;;5025589;28;20044;-69
2022/09/07 07:58:00;;;;;;;6.30;2.08;;;32.30;97.20;;;;;;5022734;28;20056;-68
2022/09/07 08:01:10;;;;;;;7.80;2.30;;;32.70;97.10;;;;;;5018386;28;20048;-69
2022/09/07 08:04:14;;;;;;;7.97;2.70;;;33.80;95.90;;;;;;5025793;28;20048;-68
2022/09/07 08:07:18;;;;;;;5.65;2.38;;;34.10;95.20;;;;;;5018551;28;20049;-68
2022/09/07 08:10:41;;;;;;;8.30;1.90;;;34.20;94.70;;;;;;5021743;28;20040;-68
2022/09/07 08:13:48;;;;;;;7.70;2.10;;;34.10;94.80;;;;;;5015920;28;20053;-68
2022/09/07 08:16:52;;;;;;;4.97;1.80;;;34.20;94.60;;;;;;5025237;28;20076;-68
2022/09/07 08:19:56;;;;;;;6.25;1.77;;;33.20;94.90;;;;;;5018326;28;20045;-68
2022/09/07 08:23:01;;;;;;;6.70;1.83;;;33.30;94.90;;;;;;5017413;28;20503;-68
2022/09/07 08:26:06;;;;;;;7.75;1.60;;;33.40;94.90;;;;;;5019947;28;20487;-68
2022/09/07 08:29:10;;;;;;;8.30;2.00;;;34.70;94.20;;;;;;5017787;28;20044;-68
2022/09/07 08:32:16;;;;;;;7.35;1.60;;;36.60;92.60;;;;;;5020229;28;20040;-68
2022/09/07 08:35:19;;;;;;;4.45;1.27;;;38.60;91.80;;;;;;5019100;28;20037;-66
2022/09/07 08:38:43;;;;;;;4.18;2.33;;;40.70;89.00;;;;;;5015744;28;20511;-66
2022/09/07 08:42:34;;;;;;;9.93;2.42;;;39.00;87.00;;;;;;5018366;28;20228;-70
2022/09/07 08:45:51;;;;;;;8.40;1.95;;;39.40;85.80;;;;;;5019842;28;20048;-68
2022/09/07 08:48:58;;;;;;;5.07;1.65;;;41.00;84.10;;;;;;5017321;28;20049;-68
2022/09/07 08:52:20;;;;;;;7.22;1.67;;;41.40;81.80;;;;;;5019627;28;20800;-69
2022/09/07 08:55:30;;;;;;;5.88;1.77;;;40.00;81.90;;;;;;5016270;28;20504;-69
2022/09/07 08:58:48;;;;;;;6.82;1.52;;;41.70;81.10;;;;;;5020575;28;20048;-68
2022/09/07 09:02:13;;;;;;;3.67;1.90;;;38.50;81.10;;;;;;5026095;28;20045;-68
2022/09/07 09:05:42;;;;;;;3.70;1.50;;;37.70;84.20;;;;;;5018893;28;20041;-68
2022/09/07 09:09:25;;;;;;;6.15;1.70;;;39.30;83.50;;;;;;5013665;28;20053;-67
2022/09/07 09:12:45;;;;;;;5.03;1.85;;;38.30;85.20;;;;;;5017600;28;20381;-67
2022/09/07 09:16:20;;;;;;;7.28;1.65;;;37.50;84.90;;;;;;5024983;28;20068;-68
2022/09/07 09:19:43;;;;;;;8.48;2.58;;;38.40;82.80;;;;;;5022449;28;20404;-68
2022/09/07 09:22:50;;;;;;;6.68;1.70;;;38.90;83.20;;;;;;5021438;28;20040;-68
2022/09/07 09:26:06;;;;;;;7.45;2.00;;;39.00;81.40;;;;;;5015400;28;20040;-69
2022/09/07 09:29:28;;;;;;;9.02;2.00;;;38.00;83.10;;;;;;5020747;28;20504;-67
2022/09/07 09:32:38;;;;;;;4.60;2.00;;;38.30;84.20;;;;;;5018882;28;20040;-68
2022/09/07 09:35:45;;;;;;;7.88;1.85;;;39.80;82.70;;;;;;5016131;28;20389;-68
2022/09/07 09:38:51;;;;;;;5.00;1.80;;;42.80;80.20;;;;;;5016715;28;20041;-68
2022/09/07 09:41:57;;;;;;;11.10;2.38;;;44.80;77.00;;;;;;5022369;28;20397;-69
2022/09/07 09:45:19;;;;;;;6.65;1.92;;;43.90;74.90;;;;;;5016999;28;20038;-68
2022/09/07 09:48:48;;;;;;;6.45;1.77;;;43.50;76.70;;;;;;5016635;28;20064;-68
2022/09/07 09:51:55;;;;;;;5.47;1.95;;;45.70;74.80;;;;;;5020205;28;20029;-65
2022/09/07 09:55:00;;;;;;;4.60;1.85;;;46.30;73.60;;;;;;5013076;28;20037;-69
2022/09/07 09:58:24;;;;;;;12.30;2.15;;;46.60;72.00;;;;;;5025567;28;20052;-68
2022/09/07 10:01:31;;;;;;;5.80;1.83;;;47.80;71.30;;;;;;5022022;28;20041;-67
2022/09/07 10:04:35;;;;;;;7.38;1.70;;;48.00;70.60;;;;;;5022621;28;20036;-68
2022/09/07 10:07:51;;;;;;;4.95;1.77;;;48.70;69.50;;;;;;5020830;28;20053;-68
2022/09/07 10:11:00;;;;;;;7.20;1.88;;;47.80;69.80;;;;;;5013354;28;20057;-68
2022/09/07 10:17:58;;;;;;;10.85;2.63;;;49.00;68.20;;;;;;5022014;28;20606;-68
2022/09/07 10:21:42;;;;;;;7.00;1.92;;;50.40;66.20;;;;;;5024458;28;20052;-68
2022/09/07 10:24:46;;;;;;;8.13;2.20;;;48.30;65.90;;;;;;5021624;28;20061;-67
2022/09/07 10:28:12;;;;;;;5.93;1.88;;;48.10;66.80;;;;;;5018225;28;20401;-68
2022/09/07 10:31:46;;;;;;;9.13;2.05;;;46.30;66.10;;;;;;5029296;28;20572;-68
2022/09/07 10:35:09;;;;;;;7.55;2.10;;;45.70;68.40;;;;;;5024862;28;20495;-67
2022/09/07 10:38:19;;;;;;;12.68;2.25;;;44.60;68.90;;;;;;5018244;28;20078;-67
2022/09/07 10:45:18;;;;;;;8.10;2.10;;;43.90;70.10;;;;;;5022259;28;20373;-67
2022/09/07 10:48:40;;;;;;;9.13;2.22;;;46.20;68.70;;;;;;5018766;28;20048;-68
2022/09/07 10:55:37;;;;;;;9.97;2.33;;;41.10;70.40;;;;;;5020011;28;20049;-67
2022/09/07 10:58:47;;;;;;;7.77;2.07;;;43.00;70.20;;;;;;5024582;28;20045;-67
2022/09/07 11:02:03;;;;;;;8.68;2.58;;;45.20;69.40;;;;;;5018573;28;20239;-67
2022/09/07 11:05:29;;;;;;;10.57;2.10;;;45.90;67.90;;;;;;5019589;28;20040;-67
2022/09/07 11:09:03;;;;;;;9.32;3.30;;;44.90;69.10;;;;;;5017492;28;20053;-67
2022/09/07 11:12:22;;;;;;;13.52;2.15;;;45.80;68.10;;;;;;5014511;28;20515;-66
2022/09/07 11:15:34;;;;;;;13.90;2.58;;;46.10;67.70;;;;;;5019534;28;20508;-67
2022/09/07 11:19:13;;;;;;;9.45;2.67;;;46.40;67.40;;;;;;5030961;28;20056;-67
2022/09/07 11:22:32;;;;;;;11.35;2.35;;;44.10;68.60;;;;;;5014901;28;20048;-67
2022/09/07 11:25:40;;;;;;;;;;;44.40;69.40;;;;;;5013230;28;20046;-67
2022/09/07 11:29:02;;;;;;;13.18;2.00;;;46.40;68.90;;;;;;5011568;28;19909;-68
2022/09/07 11:32:21;;;;;;;6.55;2.08;;;46.10;66.70;;;;;;5029259;28;20397;-67
2022/09/07 11:35:47;;;;;;;11.30;3.00;;;46.00;67.80;;;;;;5029059;28;20045;-69
2022/09/07 11:39:10;;;;;;;12.88;2.33;;;44.80;66.80;;;;;;5018106;28;20057;-66
2022/09/07 11:45:55;;;;;;;15.98;2.72;;;44.80;68.80;;;;;;5010920;28;20425;-68
2022/09/07 11:49:37;;;;;;;8.05;1.92;;;44.70;68.70;;;;;;5020808;28;20044;-68
2022/09/07 11:52:46;;;;;;;11.25;2.42;;;45.80;66.90;;;;;;5025419;28;20048;-67
2022/09/07 11:55:54;;;;;;;;;;;44.70;66.70;;;;;;5027232;28;20032;-68
2022/09/07 11:59:03;;;;;;;14.57;3.00;;;38.10;73.40;;;;;;5030136;28;19916;-68
2022/09/07 12:02:29;;;;;;;10.02;2.70;;;35.20;77.40;;;;;;5031238;28;20384;-68
2022/09/07 12:05:54;;;;;;;17.17;2.30;;;37.50;76.20;;;;;;5030357;28;20041;-68
2022/09/07 12:09:14;;;;;;;8.80;2.75;;;39.80;73.00;;;;;;5031204;28;20606;-67
2022/09/07 12:12:40;;;;;;;9.88;2.65;;;41.10;71.30;;;;;;5031071;28;20048;-68
2022/09/07 12:16:20;;;;;;;10.75;2.65;;;43.70;70.40;;;;;;5010804;28;20574;-68
2022/09/07 12:19:26;;;;;;;9.93;2.10;;;45.90;68.00;;;;;;5010804;28;20056;-68
2022/09/07 12:22:31;;;;;;;10.80;2.35;;;46.30;66.10;;;;;;5010301;28;20048;-68
2022/09/07 12:25:36;;;;;;;11.75;2.92;;;42.10;67.10;;;;;;5022124;28;20037;-68
2022/09/07 12:28:40;;;;;;;12.40;2.80;;;37.30;73.70;;;;;;5025723;28;20048;-68
2022/09/07 12:31:47;;;;;;;9.77;2.25;;;36.10;76.20;;;;;;5017023;28;20530;-67
2022/09/07 12:34:56;;;;;;;13.25;2.30;;;39.00;74.60;;;;;;5026741;28;20053;-68
2022/09/07 12:38:04;;;;;;;15.37;3.03;;;37.80;74.50;;;;;;5018772;28;20522;-68
2022/09/07 12:41:42;;;;;;;21.42;2.40;;;38.00;74.30;;;;;;5010838;28;20080;-68
2022/09/07 12:44:46;;;;;;;11.45;2.85;;;36.60;77.90;;;;;;5026677;28;20036;-67
2022/09/07 12:48:02;;;;;;;12.70;2.25;;;35.60;78.80;;;;;;5029980;28;20048;-68
2022/09/07 12:51:22;;;;;;;13.60;2.45;;;36.20;80.60;;;;;;5024785;28;20045;-68
2022/09/07 12:54:28;;;;;;;10.45;3.15;;;37.80;78.30;;;;;;5011560;28;20604;-68
2022/09/07 12:58:00;;;;;;;13.48;2.70;;;41.10;73.90;;;;;;5015661;28;20069;-68
2022/09/07 13:01:49;;;;;;;;;;;44.10;69.90;;;;;;5010613;28;20049;-68
2022/09/07 13:04:54;;;;;;;6.47;1.98;;;43.90;67.60;;;;;;5014261;28;19910;-69
2022/09/07 13:08:22;;;;;;;7.53;1.92;;;44.20;68.00;;;;;;5021047;28;20044;-68
2022/09/07 13:11:31;;;;;;;7.57;2.53;;;42.00;69.70;;;;;;5021088;28;20060;-67
2022/09/07 13:14:56;;;;;;;10.05;2.22;;;42.40;69.50;;;;;;5024105;28;20045;-68
2022/09/07 13:18:02;;;;;;;10.88;3.28;;;44.00;68.90;;;;;;5015588;28;20497;-68
2022/09/07 13:24:58;;;;;;;9.55;2.47;;;46.40;66.40;;;;;;5021136;28;20037;-69
2022/09/07 13:28:39;;;;;;;11.65;2.05;;;45.60;66.40;;;;;;5015256;28;20049;-68
2022/09/07 13:32:07;;;;;;;7.93;1.75;;;44.30;65.10;;;;;;5024287;28;20068;-69
2022/09/07 13:35:25;;;;;;;11.15;2.50;;;41.20;67.60;;;;;;5017128;28;20349;-68
2022/09/07 13:38:30;;;;;;;12.38;2.40;;;41.10;69.50;;;;;;5023755;28;20044;-68
2022/09/07 13:41:40;;;;;;;6.88;2.47;;;40.50;68.10;;;;;;5027833;28;20045;-69
2022/09/07 13:44:55;;;;;;;8.10;2.30;;;37.20;72.80;;;;;;5018351;28;20041;-68
2022/09/07 13:51:47;;;;;;;9.15;2.40;;;40.30;70.10;;;;;;5018318;28;20045;-67
2022/09/07 13:55:06;;;;;;;7.63;1.92;;;40.40;69.30;;;;;;5028258;28;20049;-68
2022/09/07 13:58:38;;;;;;;10.77;2.58;;;40.20;68.60;;;;;;5018138;28;20061;-68
2022/09/07 14:01:45;;;;;;;10.85;2.67;;;39.90;69.90;;;;;;5023461;28;20057;-68
2022/09/07 14:04:53;;;;;;;15.00;2.92;;;37.70;71.60;;;;;;5019685;28;20332;-68
2022/09/07 14:07:58;;;;;;;12.30;2.85;;;34.70;76.00;;;;;;5022553;28;20400;-67
2022/09/07 14:11:02;;;;;;;11.57;2.47;;;34.00;77.30;;;;;;5022246;28;20053;-68
2022/09/07 14:14:31;;;;;;;10.52;3.03;;;33.60;78.20;;;;;;5027339;28;20053;-68
2022/09/07 14:17:36;;;;;;;12.13;2.85;;;32.90;80.30;;;;;;5033103;28;20045;-68
2022/09/07 14:20:49;;;;;;;12.07;3.05;;;32.90;80.20;;;;;;5024016;28;20044;-67
2022/09/07 14:23:54;;;;;;;9.60;3.15;;;33.30;81.20;;;;;;5023902;28;20045;-67
2022/09/07 14:26:59;;;;;;;10.80;2.90;;;33.60;81.60;;;;;;5028399;28;20048;-67
2022/09/07 14:30:25;;;;;;;14.77;3.33;;;33.80;82.50;;;;;;5025683;28;20072;-68
2022/09/07 14:33:48;;;;;;;7.82;2.63;;;33.90;82.80;;;;;;5025165;28;20487;-67
2022/09/07 14:36:53;;;;;;;11.98;3.10;;;33.60;82.60;;;;;;5015645;28;20043;-67
2022/09/07 14:39:57;;;;;;;11.73;2.75;;;33.30;82.70;;;;;;5018437;28;20393;-68
2022/09/07 14:43:01;;;;;;;14.15;2.90;;;33.10;82.20;;;;;;5020975;28;20040;-69
2022/09/07 14:46:30;;;;;;;13.77;3.28;;;33.10;83.60;;;;;;5019386;28;20520;-68
2022/09/07 14:49:34;;;;;;;13.18;2.88;;;32.50;84.50;;;;;;5017810;28;20374;-67
2022/09/07 14:52:40;;;;;;;11.77;2.85;;;32.20;86.00;;;;;;5016474;28;20619;-67
2022/09/07 14:56:07;;;;;;;11.43;2.78;;;32.10;85.20;;;;;;5020473;28;20041;-67
2022/09/07 14:59:35;;;;;;;13.43;3.22;;;32.20;86.30;;;;;;5019086;28;20389;-67
2022/09/07 15:06:02;;;;;;;14.82;3.50;;;32.20;87.70;;;;;;5018976;28;20044;-67
2022/09/07 15:09:29;;;;;;;9.38;3.03;;;32.20;88.80;;;;;;5016566;28;20388;-68
2022/09/07 15:12:54;;;;;;;10.57;3.08;;;32.20;90.10;;;;;;5020079;28;20052;-68
2022/09/07 15:16:01;;;;;;;10.55;2.90;;;32.10;90.10;;;;;;5021962;28;20060;-67
2022/09/07 15:19:33;;;;;;;14.48;2.70;;;32.00;90.40;;;;;;5020716;28;20488;-67
2022/09/07 15:22:37;;;;;;;11.20;2.83;;;31.80;89.40;;;;;;5023549;28;20036;-67
2022/09/07 15:26:19;;;;;;;25.17;3.13;;;31.60;88.10;;;;;;5012903;28;20057;-67
2022/09/07 15:29:23;;;;;;;12.10;3.55;;;31.60;90.60;;;;;;5021519;28;20396;-67
2022/09/07 15:35:51;;;;;;;14.35;3.45;;;31.40;90.30;;;;;;5019409;28;20404;-67
2022/09/07 15:38:55;;;;;;;14.30;2.70;;;31.50;91.80;;;;;;5015175;28;20049;-68
2022/09/07 15:41:59;;;;;;;10.43;2.80;;;31.70;91.30;;;;;;5022193;28;20040;-68
2022/09/07 15:45:03;;;;;;;17.83;4.70;;;31.90;91.30;;;;;;5027125;28;20400;-67
2022/09/07 15:48:15;;;;;;;16.50;3.78;;;32.20;91.50;;;;;;5023210;28;20048;-67
2022/09/07 15:51:21;;;;;;;10.00;2.65;;;32.40;91.70;;;;;;5016999;28;20066;-68
2022/09/07 15:54:25;;;;;;;13.05;3.35;;;32.50;91.70;;;;;;5020957;28;20044;-67
2022/09/07 15:57:30;;;;;;;18.67;3.03;;;32.50;90.50;;;;;;5022232;28;20056;-67
2022/09/07 16:00:34;;;;;;;16.48;2.60;;;32.70;91.10;;;;;;5014606;28;20389;-67
2022/09/07 16:03:37;;;;;;;14.40;2.95;;;32.70;90.30;;;;;;5016842;28;20040;-67
2022/09/07 16:06:42;;;;;;;10.40;2.60;;;32.70;89.90;;;;;;5011609;28;20052;-68
2022/09/07 16:09:46;;;;;;;9.15;2.30;;;32.70;89.60;;;;;;5010926;28;20049;-67
2022/09/07 16:12:50;;;;;;;8.13;2.85;;;32.70;90.20;;;;;;5011568;28;20053;-67
2022/09/07 16:15:54;;;;;;;13.85;3.28;;;32.70;89.60;;;;;;5010919;28;20049;-67
2022/09/07 16:18:58;;;;;;;11.30;3.15;;;32.50;89.90;;;;;;5010941;28;20053;-69
2022/09/07 16:22:02;;;;;;;9.95;2.83;;;32.50;90.70;;;;;;5010905;28;20500;-68
2022/09/07 16:25:07;;;;;;;12.25;2.90;;;32.50;90.30;;;;;;5011246;28;20057;-68
2022/09/07 16:28:10;;;;;;;20.73;4.40;;;32.40;90.10;;;;;;5010786;28;20057;-68
2022/09/07 16:31:33;;;;;;;13.07;2.95;;;32.30;90.60;;;;;;5010974;28;20049;-68
2022/09/07 16:34:38;;;;;;;16.35;3.40;;;32.20;90.10;;;;;;5011144;28;20115;-67
2022/09/07 16:37:42;;;;;;;15.90;3.35;;;31.70;90.70;;;;;;5011143;28;20397;-67
2022/09/07 16:40:46;;;;;;;21.17;3.72;;;31.30;91.10;;;;;;5011175;28;20484;-68
2022/09/07 16:43:50;;;;;;;12.35;4.05;;;30.70;92.40;;;;;;5011491;28;20068;-67
2022/09/07 16:46:53;;;;;;;13.13;3.70;;;30.60;92.70;;;;;;5010730;28;20492;-68
2022/09/07 16:49:58;;;;;;;14.88;3.72;;;30.80;93.10;;;;;;5011284;28;20397;-67
2022/09/07 16:53:01;;;;;;;13.95;3.35;;;30.70;93.30;;;;;;5010375;28;20068;-67
2022/09/07 16:56:14;;;;;;;10.30;3.17;;;30.60;93.90;;;;;;5011050;28;20397;-67
2022/09/07 17:02:41;;;;;;;12.60;3.97;;;29.60;96.50;;;;;;5010465;28;20049;-69
2022/09/07 17:05:45;;;;;;;16.42;3.85;;;29.00;97.80;;;;;;5015094;28;20045;-68
2022/09/07 17:08:48;;;;;;;17.77;3.80;;;28.30;99.80;;;;;;5014112;28;20044;-68
2022/09/07 17:11:52;;;;;;;13.48;3.70;;;28.20;99.90;;;;;;5014857;28;20046;-68
2022/09/07 17:15:15;;;;;;;18.70;4.10;;;28.00;99.90;;;;;;5014235;28;20048;-68
2022/09/07 17:18:19;;;;;;;19.50;3.90;;;27.70;99.90;;;;;;5014374;28;20531;-67
2022/09/07 17:21:23;;;;;;;20.20;4.10;;;27.50;99.90;;;;;;5014524;28;20110;-67
2022/09/07 17:24:27;;;;;;;12.85;4.50;;;27.40;99.90;;;;;;5014330;28;20049;-68
2022/09/07 17:27:31;;;;;;;14.57;3.65;;;27.30;99.90;;;;;;5014420;28;20403;-68
2022/09/07 17:30:54;;;;;;;16.10;3.95;;;27.30;99.90;;;;;;5014082;28;20057;-68
2022/09/07 17:33:59;;;;;;;10.75;3.67;;;27.20;99.90;;;;;;5013707;28;20064;-68
2022/09/07 17:37:03;;;;;;;24.23;4.22;;;27.10;99.90;;;;;;5014577;28;20040;-68